sensor_id;sensor_type;location;lat;lon;timestamp;P1;durP1;ratioP1;P2;durP2;ratioP2
11191;SDS011;5652;48.406;10.820;2023-04-21T00:01:56;26.40;;;14.40;;
11191;SDS011;5652;48.406;10.820;2023-04-21T00:04:24;26.35;;;14.27;;
11191;SDS011;5652;48.406;10.820;2023-04-21T00:06:52;26.42;;;13.60;;
11191;SDS011;5652;48.406;10.820;2023-04-21T00:09:19;25.10;;;14.00;;
11191;SDS011;5652;48.406;10.820;2023-04-21T00:11:46;23.02;;;13.88;;
11191;SDS011;5652;48.406;10.820;2023-04-21T00:14:15;27.73;;;14.05;;
11191;SDS011;5652;48.406;10.820;2023-04-21T00:16:42;24.77;;;13.60;;
11191;SDS011;5652;48.406;10.820;2023-04-21T00:19:09;29.23;;;14.32;;
11191;SDS011;5652;48.406;10.820;2023-04-21T00:21:38;23.55;;;12.93;;
11191;SDS011;5652;48.406;10.820;2023-04-21T00:24:05;28.60;;;14.13;;
11191;SDS011;5652;48.406;10.820;2023-04-21T00:26:34;26.00;;;13.73;;
11191;SDS011;5652;48.406;10.820;2023-04-21T00:29:01;26.13;;;14.48;;
11191;SDS011;5652;48.406;10.820;2023-04-21T00:31:30;29.20;;;14.75;;
11191;SDS011;5652;48.406;10.820;2023-04-21T00:33:57;29.20;;;14.68;;
11191;SDS011;5652;48.406;10.820;2023-04-21T00:36:24;25.35;;;13.93;;
11191;SDS011;5652;48.406;10.820;2023-04-21T00:38:52;25.13;;;13.40;;
11191;SDS011;5652;48.406;10.820;2023-04-21T00:41:19;26.63;;;14.20;;
11191;SDS011;5652;48.406;10.820;2023-04-21T00:43:59;25.20;;;13.82;;
11191;SDS011;5652;48.406;10.820;2023-04-21T00:46:29;25.10;;;14.02;;
11191;SDS011;5652;48.406;10.820;2023-04-21T00:48:56;26.60;;;13.75;;
11191;SDS011;5652;48.406;10.820;2023-04-21T00:51:23;25.88;;;13.52;;
11191;SDS011;5652;48.406;10.820;2023-04-21T00:53:52;25.25;;;13.07;;
11191;SDS011;5652;48.406;10.820;2023-04-21T00:56:19;26.48;;;14.07;;
11191;SDS011;5652;48.406;10.820;2023-04-21T00:58:47;26.55;;;13.40;;
11191;SDS011;5652;48.406;10.820;2023-04-21T01:01:14;28.47;;;14.57;;
11191;SDS011;5652;48.406;10.820;2023-04-21T01:03:43;23.65;;;13.05;;
11191;SDS011;5652;48.406;10.820;2023-04-21T01:06:11;27.63;;;13.35;;
11191;SDS011;5652;48.406;10.820;2023-04-21T01:08:38;27.88;;;14.00;;
11191;SDS011;5652;48.406;10.820;2023-04-21T01:11:09;28.17;;;14.45;;
11191;SDS011;5652;48.406;10.820;2023-04-21T01:13:36;25.55;;;13.80;;
11191;SDS011;5652;48.406;10.820;2023-04-21T01:16:06;25.98;;;13.75;;
11191;SDS011;5652;48.406;10.820;2023-04-21T01:18:33;24.00;;;13.38;;
11191;SDS011;5652;48.406;10.820;2023-04-21T01:21:03;23.50;;;13.20;;
11191;SDS011;5652;48.406;10.820;2023-04-21T01:23:33;25.45;;;13.82;;
11191;SDS011;5652;48.406;10.820;2023-04-21T01:26:00;25.35;;;13.82;;
11191;SDS011;5652;48.406;10.820;2023-04-21T01:28:28;24.87;;;14.13;;
11191;SDS011;5652;48.406;10.820;2023-04-21T01:30:55;25.92;;;13.32;;
11191;SDS011;5652;48.406;10.820;2023-04-21T01:33:22;23.02;;;11.93;;
11191;SDS011;5652;48.406;10.820;2023-04-21T01:35:49;22.77;;;13.02;;
11191;SDS011;5652;48.406;10.820;2023-04-21T01:38:16;24.23;;;13.20;;
11191;SDS011;5652;48.406;10.820;2023-04-21T01:40:45;24.10;;;12.93;;
11191;SDS011;5652;48.406;10.820;2023-04-21T01:43:13;22.70;;;12.02;;
11191;SDS011;5652;48.406;10.820;2023-04-21T01:45:40;26.98;;;12.82;;
11191;SDS011;5652;48.406;10.820;2023-04-21T01:48:07;25.75;;;12.80;;
11191;SDS011;5652;48.406;10.820;2023-04-21T01:50:35;29.67;;;14.13;;
11191;SDS011;5652;48.406;10.820;2023-04-21T01:53:02;31.75;;;14.43;;
11191;SDS011;5652;48.406;10.820;2023-04-21T01:55:29;32.28;;;14.77;;
11191;SDS011;5652;48.406;10.820;2023-04-21T01:57:57;29.95;;;14.20;;
11191;SDS011;5652;48.406;10.820;2023-04-21T02:00:25;32.33;;;14.52;;
11191;SDS011;5652;48.406;10.820;2023-04-21T02:02:52;32.67;;;14.50;;
11191;SDS011;5652;48.406;10.820;2023-04-21T02:05:19;32.55;;;14.63;;
11191;SDS011;5652;48.406;10.820;2023-04-21T02:07:46;30.60;;;13.90;;
11191;SDS011;5652;48.406;10.820;2023-04-21T02:10:13;32.85;;;14.38;;
11191;SDS011;5652;48.406;10.820;2023-04-21T02:12:40;32.03;;;13.82;;
11191;SDS011;5652;48.406;10.820;2023-04-21T02:15:09;32.72;;;14.65;;
11191;SDS011;5652;48.406;10.820;2023-04-21T02:17:36;31.88;;;13.75;;
11191;SDS011;5652;48.406;10.820;2023-04-21T02:20:04;30.75;;;13.82;;
11191;SDS011;5652;48.406;10.820;2023-04-21T02:22:31;34.40;;;15.02;;
11191;SDS011;5652;48.406;10.820;2023-04-21T02:25:00;34.42;;;14.93;;
11191;SDS011;5652;48.406;10.820;2023-04-21T02:27:27;31.98;;;14.88;;
11191;SDS011;5652;48.406;10.820;2023-04-21T02:29:54;31.08;;;14.25;;
11191;SDS011;5652;48.406;10.820;2023-04-21T02:32:22;34.05;;;15.25;;
11191;SDS011;5652;48.406;10.820;2023-04-21T02:34:49;31.38;;;14.95;;
11191;SDS011;5652;48.406;10.820;2023-04-21T02:37:17;32.13;;;14.40;;
11191;SDS011;5652;48.406;10.820;2023-04-21T02:39:44;31.63;;;15.20;;
11191;SDS011;5652;48.406;10.820;2023-04-21T02:42:11;30.65;;;15.10;;
11191;SDS011;5652;48.406;10.820;2023-04-21T02:44:38;39.80;;;15.55;;
11191;SDS011;5652;48.406;10.820;2023-04-21T02:47:06;34.80;;;15.45;;
11191;SDS011;5652;48.406;10.820;2023-04-21T02:49:38;36.70;;;16.85;;
11191;SDS011;5652;48.406;10.820;2023-04-21T02:52:05;32.33;;;15.13;;
11191;SDS011;5652;48.406;10.820;2023-04-21T02:54:32;33.97;;;14.27;;
11191;SDS011;5652;48.406;10.820;2023-04-21T02:56:59;29.23;;;14.30;;
11191;SDS011;5652;48.406;10.820;2023-04-21T02:59:26;28.98;;;14.10;;
11191;SDS011;5652;48.406;10.820;2023-04-21T03:01:54;30.00;;;13.82;;
11191;SDS011;5652;48.406;10.820;2023-04-21T03:04:21;30.92;;;14.35;;
11191;SDS011;5652;48.406;10.820;2023-04-21T03:06:50;28.38;;;13.88;;
11191;SDS011;5652;48.406;10.820;2023-04-21T03:09:17;28.17;;;13.93;;
11191;SDS011;5652;48.406;10.820;2023-04-21T03:11:44;28.48;;;13.95;;
11191;SDS011;5652;48.406;10.820;2023-04-21T03:14:11;29.30;;;13.90;;
11191;SDS011;5652;48.406;10.820;2023-04-21T03:16:39;29.83;;;14.10;;
11191;SDS011;5652;48.406;10.820;2023-04-21T03:19:06;34.22;;;13.60;;
11191;SDS011;5652;48.406;10.820;2023-04-21T03:21:35;32.78;;;15.05;;
11191;SDS011;5652;48.406;10.820;2023-04-21T03:24:04;35.30;;;14.90;;
11191;SDS011;5652;48.406;10.820;2023-04-21T03:26:31;33.72;;;14.60;;
11191;SDS011;5652;48.406;10.820;2023-04-21T03:28:58;39.17;;;15.35;;
11191;SDS011;5652;48.406;10.820;2023-04-21T03:31:26;33.75;;;14.38;;
11191;SDS011;5652;48.406;10.820;2023-04-21T03:33:53;31.38;;;14.50;;
11191;SDS011;5652;48.406;10.820;2023-04-21T03:36:20;35.20;;;15.70;;
11191;SDS011;5652;48.406;10.820;2023-04-21T03:38:47;35.25;;;14.50;;
11191;SDS011;5652;48.406;10.820;2023-04-21T03:41:15;36.13;;;15.38;;
11191;SDS011;5652;48.406;10.820;2023-04-21T03:43:43;38.22;;;15.20;;
11191;SDS011;5652;48.406;10.820;2023-04-21T03:46:16;45.35;;;15.93;;
11191;SDS011;5652;48.406;10.820;2023-04-21T03:48:43;44.85;;;15.13;;
11191;SDS011;5652;48.406;10.820;2023-04-21T03:51:11;57.75;;;15.52;;
11191;SDS011;5652;48.406;10.820;2023-04-21T03:53:38;209.18;;;18.60;;
11191;SDS011;5652;48.406;10.820;2023-04-21T03:56:05;286.13;;;20.92;;
11191;SDS011;5652;48.406;10.820;2023-04-21T03:58:33;181.50;;;17.52;;
11191;SDS011;5652;48.406;10.820;2023-04-21T04:01:01;47.88;;;15.30;;
11191;SDS011;5652;48.406;10.820;2023-04-21T04:03:28;46.80;;;14.93;;
11191;SDS011;5652;48.406;10.820;2023-04-21T04:05:55;69.88;;;13.82;;
11191;SDS011;5652;48.406;10.820;2023-04-21T04:08:22;155.98;;;15.85;;
11191;SDS011;5652;48.406;10.820;2023-04-21T04:10:49;137.13;;;15.10;;
11191;SDS011;5652;48.406;10.820;2023-04-21T04:13:16;224.20;;;15.85;;
11191;SDS011;5652;48.406;10.820;2023-04-21T04:15:45;226.20;;;16.60;;
11191;SDS011;5652;48.406;10.820;2023-04-21T04:18:12;222.98;;;16.52;;
11191;SDS011;5652;48.406;10.820;2023-04-21T04:20:39;262.25;;;17.08;;
11191;SDS011;5652;48.406;10.820;2023-04-21T04:23:06;149.32;;;15.15;;
11191;SDS011;5652;48.406;10.820;2023-04-21T04:25:35;174.80;;;15.43;;
11191;SDS011;5652;48.406;10.820;2023-04-21T04:28:03;198.43;;;17.50;;
11191;SDS011;5652;48.406;10.820;2023-04-21T04:30:31;199.85;;;17.13;;
11191;SDS011;5652;48.406;10.820;2023-04-21T04:33:00;305.02;;;20.33;;
11191;SDS011;5652;48.406;10.820;2023-04-21T04:35:27;249.45;;;17.88;;
11191;SDS011;5652;48.406;10.820;2023-04-21T04:37:54;213.40;;;17.50;;
11191;SDS011;5652;48.406;10.820;2023-04-21T04:40:23;133.48;;;15.80;;
11191;SDS011;5652;48.406;10.820;2023-04-21T04:42:50;119.18;;;15.50;;
11191;SDS011;5652;48.406;10.820;2023-04-21T04:45:19;163.23;;;16.75;;
11191;SDS011;5652;48.406;10.820;2023-04-21T04:47:47;243.45;;;19.33;;
11191;SDS011;5652;48.406;10.820;2023-04-21T04:50:15;217.43;;;18.55;;
11191;SDS011;5652;48.406;10.820;2023-04-21T04:52:42;194.00;;;18.13;;
11191;SDS011;5652;48.406;10.820;2023-04-21T04:55:11;214.90;;;17.75;;
11191;SDS011;5652;48.406;10.820;2023-04-21T04:57:39;104.35;;;13.32;;
11191;SDS011;5652;48.406;10.820;2023-04-21T05:00:06;377.52;;;23.75;;
11191;SDS011;5652;48.406;10.820;2023-04-21T05:02:35;205.15;;;17.85;;
11191;SDS011;5652;48.406;10.820;2023-04-21T05:05:02;183.73;;;17.98;;
11191;SDS011;5652;48.406;10.820;2023-04-21T05:07:31;216.73;;;18.50;;
11191;SDS011;5652;48.406;10.820;2023-04-21T05:09:58;350.48;;;21.92;;
11191;SDS011;5652;48.406;10.820;2023-04-21T05:12:25;232.40;;;18.00;;
11191;SDS011;5652;48.406;10.820;2023-04-21T05:14:52;308.30;;;19.80;;
11191;SDS011;5652;48.406;10.820;2023-04-21T05:17:20;249.23;;;17.38;;
11191;SDS011;5652;48.406;10.820;2023-04-21T05:19:47;273.80;;;19.27;;
11191;SDS011;5652;48.406;10.820;2023-04-21T05:22:14;311.25;;;20.42;;
11191;SDS011;5652;48.406;10.820;2023-04-21T05:24:42;395.02;;;21.90;;
11191;SDS011;5652;48.406;10.820;2023-04-21T05:27:09;218.80;;;17.73;;
11191;SDS011;5652;48.406;10.820;2023-04-21T05:29:36;203.52;;;18.23;;
11191;SDS011;5652;48.406;10.820;2023-04-21T05:32:04;149.15;;;16.45;;
11191;SDS011;5652;48.406;10.820;2023-04-21T05:34:31;169.80;;;16.83;;
11191;SDS011;5652;48.406;10.820;2023-04-21T05:36:58;256.02;;;19.55;;
11191;SDS011;5652;48.406;10.820;2023-04-21T05:39:26;253.43;;;18.70;;
11191;SDS011;5652;48.406;10.820;2023-04-21T05:41:54;266.73;;;19.08;;
11191;SDS011;5652;48.406;10.820;2023-04-21T05:44:21;381.85;;;21.02;;
11191;SDS011;5652;48.406;10.820;2023-04-21T05:46:49;281.60;;;17.77;;
11191;SDS011;5652;48.406;10.820;2023-04-21T05:49:16;393.65;;;20.58;;
11191;SDS011;5652;48.406;10.820;2023-04-21T05:51:43;316.48;;;19.20;;
11191;SDS011;5652;48.406;10.820;2023-04-21T05:54:10;227.02;;;16.88;;
11191;SDS011;5652;48.406;10.820;2023-04-21T05:56:37;302.98;;;19.55;;
11191;SDS011;5652;48.406;10.820;2023-04-21T05:59:06;256.02;;;18.02;;
11191;SDS011;5652;48.406;10.820;2023-04-21T06:01:33;116.85;;;13.48;;
11191;SDS011;5652;48.406;10.820;2023-04-21T06:04:00;199.68;;;15.18;;
11191;SDS011;5652;48.406;10.820;2023-04-21T06:06:27;262.50;;;18.15;;
11191;SDS011;5652;48.406;10.820;2023-04-21T06:08:54;172.70;;;15.40;;
11191;SDS011;5652;48.406;10.820;2023-04-21T06:11:21;301.20;;;17.05;;
11191;SDS011;5652;48.406;10.820;2023-04-21T06:13:49;69.93;;;11.27;;
11191;SDS011;5652;48.406;10.820;2023-04-21T06:16:19;78.73;;;13.27;;
11191;SDS011;5652;48.406;10.820;2023-04-21T06:18:46;53.67;;;12.02;;
11191;SDS011;5652;48.406;10.820;2023-04-21T06:21:13;89.43;;;13.25;;
11191;SDS011;5652;48.406;10.820;2023-04-21T06:23:42;103.50;;;14.68;;
11191;SDS011;5652;48.406;10.820;2023-04-21T06:26:17;122.43;;;15.07;;
11191;SDS011;5652;48.406;10.820;2023-04-21T06:28:44;152.27;;;15.48;;
11191;SDS011;5652;48.406;10.820;2023-04-21T06:31:11;73.03;;;13.43;;
11191;SDS011;5652;48.406;10.820;2023-04-21T06:33:40;76.15;;;12.30;;
11191;SDS011;5652;48.406;10.820;2023-04-21T06:36:08;60.40;;;11.98;;
11191;SDS011;5652;48.406;10.820;2023-04-21T06:38:35;45.63;;;12.00;;
11191;SDS011;5652;48.406;10.820;2023-04-21T06:41:03;90.65;;;13.48;;
11191;SDS011;5652;48.406;10.820;2023-04-21T06:43:31;78.65;;;11.77;;
11191;SDS011;5652;48.406;10.820;2023-04-21T06:45:58;84.57;;;12.60;;
11191;SDS011;5652;48.406;10.820;2023-04-21T06:48:25;121.50;;;12.80;;
11191;SDS011;5652;48.406;10.820;2023-04-21T06:50:55;89.45;;;12.07;;
11191;SDS011;5652;48.406;10.820;2023-04-21T06:53:22;88.77;;;11.17;;
11191;SDS011;5652;48.406;10.820;2023-04-21T06:55:50;84.00;;;11.63;;
11191;SDS011;5652;48.406;10.820;2023-04-21T06:58:18;40.65;;;10.70;;
11191;SDS011;5652;48.406;10.820;2023-04-21T07:00:45;45.42;;;10.68;;
11191;SDS011;5652;48.406;10.820;2023-04-21T07:03:12;33.75;;;9.95;;
11191;SDS011;5652;48.406;10.820;2023-04-21T07:05:39;31.27;;;10.37;;
11191;SDS011;5652;48.406;10.820;2023-04-21T07:08:08;22.17;;;10.45;;
11191;SDS011;5652;48.406;10.820;2023-04-21T07:10:35;24.73;;;10.35;;
11191;SDS011;5652;48.406;10.820;2023-04-21T07:13:02;23.38;;;10.15;;
11191;SDS011;5652;48.406;10.820;2023-04-21T07:15:29;17.00;;;10.30;;
11191;SDS011;5652;48.406;10.820;2023-04-21T07:17:56;22.10;;;10.20;;
11191;SDS011;5652;48.406;10.820;2023-04-21T07:20:23;22.10;;;10.65;;
11191;SDS011;5652;48.406;10.820;2023-04-21T07:22:50;18.50;;;10.93;;
11191;SDS011;5652;48.406;10.820;2023-04-21T07:25:19;18.83;;;10.63;;
11191;SDS011;5652;48.406;10.820;2023-04-21T07:27:46;18.35;;;11.50;;
11191;SDS011;5652;48.406;10.820;2023-04-21T07:30:13;19.42;;;11.48;;
11191;SDS011;5652;48.406;10.820;2023-04-21T07:32:40;14.02;;;9.25;;
11191;SDS011;5652;48.406;10.820;2023-04-21T07:35:08;16.27;;;10.05;;
11191;SDS011;5652;48.406;10.820;2023-04-21T07:37:35;15.80;;;9.95;;
11191;SDS011;5652;48.406;10.820;2023-04-21T07:40:04;17.77;;;10.13;;
11191;SDS011;5652;48.406;10.820;2023-04-21T07:42:33;17.13;;;9.38;;
11191;SDS011;5652;48.406;10.820;2023-04-21T07:45:00;15.48;;;9.48;;
11191;SDS011;5652;48.406;10.820;2023-04-21T07:47:27;15.27;;;9.40;;
11191;SDS011;5652;48.406;10.820;2023-04-21T07:49:54;14.32;;;9.15;;
11191;SDS011;5652;48.406;10.820;2023-04-21T07:52:21;16.50;;;10.55;;
11191;SDS011;5652;48.406;10.820;2023-04-21T07:54:49;16.00;;;10.13;;
11191;SDS011;5652;48.406;10.820;2023-04-21T07:57:16;17.83;;;10.83;;
11191;SDS011;5652;48.406;10.820;2023-04-21T07:59:44;16.05;;;10.48;;
11191;SDS011;5652;48.406;10.820;2023-04-21T08:02:11;15.57;;;10.50;;
11191;SDS011;5652;48.406;10.820;2023-04-21T08:04:39;17.35;;;11.55;;
11191;SDS011;5652;48.406;10.820;2023-04-21T08:07:06;16.35;;;10.55;;
11191;SDS011;5652;48.406;10.820;2023-04-21T08:09:34;15.15;;;10.55;;
11191;SDS011;5652;48.406;10.820;2023-04-21T08:12:01;16.05;;;10.55;;
11191;SDS011;5652;48.406;10.820;2023-04-21T08:14:28;15.98;;;11.00;;
11191;SDS011;5652;48.406;10.820;2023-04-21T08:16:57;17.77;;;11.38;;
11191;SDS011;5652;48.406;10.820;2023-04-21T08:19:24;18.75;;;11.45;;
11191;SDS011;5652;48.406;10.820;2023-04-21T08:21:52;16.90;;;11.50;;
11191;SDS011;5652;48.406;10.820;2023-04-21T08:24:19;17.38;;;11.57;;
11191;SDS011;5652;48.406;10.820;2023-04-21T08:26:46;15.88;;;11.02;;
11191;SDS011;5652;48.406;10.820;2023-04-21T08:29:13;19.83;;;12.82;;
11191;SDS011;5652;48.406;10.820;2023-04-21T08:31:41;17.08;;;11.77;;
11191;SDS011;5652;48.406;10.820;2023-04-21T08:34:09;18.50;;;12.60;;
11191;SDS011;5652;48.406;10.820;2023-04-21T08:36:37;18.35;;;12.35;;
11191;SDS011;5652;48.406;10.820;2023-04-21T08:39:05;16.35;;;11.80;;
11191;SDS011;5652;48.406;10.820;2023-04-21T08:41:32;17.13;;;11.65;;
11191;SDS011;5652;48.406;10.820;2023-04-21T08:44:00;18.65;;;12.43;;
11191;SDS011;5652;48.406;10.820;2023-04-21T08:46:27;18.13;;;12.43;;
11191;SDS011;5652;48.406;10.820;2023-04-21T08:48:55;21.08;;;11.60;;
11191;SDS011;5652;48.406;10.820;2023-04-21T08:51:26;19.05;;;11.60;;
11191;SDS011;5652;48.406;10.820;2023-04-21T08:53:54;17.10;;;11.75;;
11191;SDS011;5652;48.406;10.820;2023-04-21T08:56:22;17.33;;;11.73;;
11191;SDS011;5652;48.406;10.820;2023-04-21T08:58:50;17.05;;;12.05;;
11191;SDS011;5652;48.406;10.820;2023-04-21T09:01:17;17.15;;;12.18;;
11191;SDS011;5652;48.406;10.820;2023-04-21T09:03:44;16.00;;;11.20;;
11191;SDS011;5652;48.406;10.820;2023-04-21T09:06:11;16.27;;;11.70;;
11191;SDS011;5652;48.406;10.820;2023-04-21T09:08:42;18.60;;;12.10;;
11191;SDS011;5652;48.406;10.820;2023-04-21T09:11:12;19.33;;;11.50;;
11191;SDS011;5652;48.406;10.820;2023-04-21T09:13:40;17.60;;;12.52;;
11191;SDS011;5652;48.406;10.820;2023-04-21T09:16:14;16.05;;;11.50;;
11191;SDS011;5652;48.406;10.820;2023-04-21T09:18:41;12.32;;;9.63;;
11191;SDS011;5652;48.406;10.820;2023-04-21T09:21:09;13.80;;;8.90;;
11191;SDS011;5652;48.406;10.820;2023-04-21T09:23:41;12.80;;;10.00;;
11191;SDS011;5652;48.406;10.820;2023-04-21T09:26:09;13.43;;;10.15;;
11191;SDS011;5652;48.406;10.820;2023-04-21T09:28:36;12.07;;;9.10;;
11191;SDS011;5652;48.406;10.820;2023-04-21T09:31:05;12.82;;;9.98;;
11191;SDS011;5652;48.406;10.820;2023-04-21T09:33:39;14.05;;;9.85;;
11191;SDS011;5652;48.406;10.820;2023-04-21T09:36:16;13.13;;;9.80;;
11191;SDS011;5652;48.406;10.820;2023-04-21T09:38:48;13.15;;;10.10;;
11191;SDS011;5652;48.406;10.820;2023-04-21T09:41:16;13.80;;;10.20;;
11191;SDS011;5652;48.406;10.820;2023-04-21T09:43:43;11.95;;;10.07;;
11191;SDS011;5652;48.406;10.820;2023-04-21T09:46:10;14.93;;;10.50;;
11191;SDS011;5652;48.406;10.820;2023-04-21T09:48:38;12.93;;;10.40;;
11191;SDS011;5652;48.406;10.820;2023-04-21T09:51:08;12.50;;;9.90;;
11191;SDS011;5652;48.406;10.820;2023-04-21T09:53:36;13.85;;;10.35;;
11191;SDS011;5652;48.406;10.820;2023-04-21T09:56:06;12.93;;;10.02;;
11191;SDS011;5652;48.406;10.820;2023-04-21T09:58:37;15.20;;;10.45;;
11191;SDS011;5652;48.406;10.820;2023-04-21T10:01:06;16.48;;;10.30;;
11191;SDS011;5652;48.406;10.820;2023-04-21T10:03:33;16.65;;;11.00;;
11191;SDS011;5652;48.406;10.820;2023-04-21T10:06:03;16.00;;;11.18;;
11191;SDS011;5652;48.406;10.820;2023-04-21T10:08:31;13.13;;;9.70;;
11191;SDS011;5652;48.406;10.820;2023-04-21T10:10:58;12.25;;;9.32;;
11191;SDS011;5652;48.406;10.820;2023-04-21T10:13:27;13.15;;;10.00;;
11191;SDS011;5652;48.406;10.820;2023-04-21T10:16:00;13.90;;;10.40;;
11191;SDS011;5652;48.406;10.820;2023-04-21T10:18:27;17.25;;;10.95;;
11191;SDS011;5652;48.406;10.820;2023-04-21T10:20:55;12.75;;;9.27;;
11191;SDS011;5652;48.406;10.820;2023-04-21T10:23:26;12.00;;;9.52;;
11191;SDS011;5652;48.406;10.820;2023-04-21T10:25:57;13.82;;;10.82;;
11191;SDS011;5652;48.406;10.820;2023-04-21T10:31:17;14.02;;;10.80;;
11191;SDS011;5652;48.406;10.820;2023-04-21T10:36:32;14.65;;;11.13;;
11191;SDS011;5652;48.406;10.820;2023-04-21T10:39:00;14.48;;;11.02;;
11191;SDS011;5652;48.406;10.820;2023-04-21T10:41:28;16.10;;;11.05;;
11191;SDS011;5652;48.406;10.820;2023-04-21T10:43:56;15.25;;;10.80;;
11191;SDS011;5652;48.406;10.820;2023-04-21T10:46:31;13.60;;;10.63;;
11191;SDS011;5652;48.406;10.820;2023-04-21T10:49:03;18.75;;;11.00;;
11191;SDS011;5652;48.406;10.820;2023-04-21T10:51:30;15.15;;;10.25;;
11191;SDS011;5652;48.406;10.820;2023-04-21T10:53:58;12.18;;;9.40;;
11191;SDS011;5652;48.406;10.820;2023-04-21T10:56:27;14.25;;;10.35;;
11191;SDS011;5652;48.406;10.820;2023-04-21T10:58:54;14.80;;;10.38;;
11191;SDS011;5652;48.406;10.820;2023-04-21T11:01:21;13.48;;;9.88;;
11191;SDS011;5652;48.406;10.820;2023-04-21T11:03:52;13.73;;;10.10;;
11191;SDS011;5652;48.406;10.820;2023-04-21T11:06:22;14.18;;;10.60;;
11191;SDS011;5652;48.406;10.820;2023-04-21T11:08:55;13.50;;;10.32;;
11191;SDS011;5652;48.406;10.820;2023-04-21T11:11:23;13.35;;;9.68;;
11191;SDS011;5652;48.406;10.820;2023-04-21T11:13:51;11.63;;;9.07;;
11191;SDS011;5652;48.406;10.820;2023-04-21T11:16:18;13.00;;;9.32;;
11191;SDS011;5652;48.406;10.820;2023-04-21T11:18:45;11.17;;;8.50;;
11191;SDS011;5652;48.406;10.820;2023-04-21T11:21:16;11.52;;;8.63;;
11191;SDS011;5652;48.406;10.820;2023-04-21T11:23:51;11.45;;;8.75;;
11191;SDS011;5652;48.406;10.820;2023-04-21T11:26:28;13.93;;;9.90;;
11191;SDS011;5652;48.406;10.820;2023-04-21T11:28:58;11.98;;;9.18;;
11191;SDS011;5652;48.406;10.820;2023-04-21T11:31:26;12.57;;;9.73;;
11191;SDS011;5652;48.406;10.820;2023-04-21T11:33:54;10.88;;;9.15;;
11191;SDS011;5652;48.406;10.820;2023-04-21T11:36:23;13.63;;;9.30;;
11191;SDS011;5652;48.406;10.820;2023-04-21T11:38:51;11.07;;;8.98;;
11191;SDS011;5652;48.406;10.820;2023-04-21T11:41:22;12.25;;;9.48;;
11191;SDS011;5652;48.406;10.820;2023-04-21T11:43:49;10.73;;;8.70;;
11191;SDS011;5652;48.406;10.820;2023-04-21T11:46:17;10.75;;;8.30;;
11191;SDS011;5652;48.406;10.820;2023-04-21T11:48:45;11.40;;;8.65;;
11191;SDS011;5652;48.406;10.820;2023-04-21T11:51:13;9.85;;;8.35;;
11191;SDS011;5652;48.406;10.820;2023-04-21T11:53:41;12.80;;;9.57;;
11191;SDS011;5652;48.406;10.820;2023-04-21T11:56:09;12.93;;;9.15;;
11191;SDS011;5652;48.406;10.820;2023-04-21T11:58:36;11.60;;;9.05;;
11191;SDS011;5652;48.406;10.820;2023-04-21T12:01:07;11.65;;;9.23;;
11191;SDS011;5652;48.406;10.820;2023-04-21T12:03:34;10.15;;;8.45;;
11191;SDS011;5652;48.406;10.820;2023-04-21T12:06:01;11.82;;;9.13;;
11191;SDS011;5652;48.406;10.820;2023-04-21T12:08:29;13.23;;;9.50;;
11191;SDS011;5652;48.406;10.820;2023-04-21T12:10:58;14.02;;;10.00;;
11191;SDS011;5652;48.406;10.820;2023-04-21T12:13:26;11.87;;;9.10;;
11191;SDS011;5652;48.406;10.820;2023-04-21T12:15:54;11.13;;;8.85;;
11191;SDS011;5652;48.406;10.820;2023-04-21T12:18:22;12.20;;;9.90;;
11191;SDS011;5652;48.406;10.820;2023-04-21T12:20:53;11.82;;;9.43;;
11191;SDS011;5652;48.406;10.820;2023-04-21T12:23:20;12.98;;;9.52;;
11191;SDS011;5652;48.406;10.820;2023-04-21T12:25:49;12.35;;;9.23;;
11191;SDS011;5652;48.406;10.820;2023-04-21T12:28:17;11.45;;;9.18;;
11191;SDS011;5652;48.406;10.820;2023-04-21T12:30:45;11.98;;;9.02;;
11191;SDS011;5652;48.406;10.820;2023-04-21T12:33:12;12.68;;;9.30;;
11191;SDS011;5652;48.406;10.820;2023-04-21T12:35:39;10.93;;;8.77;;
11191;SDS011;5652;48.406;10.820;2023-04-21T12:38:06;9.87;;;8.50;;
11191;SDS011;5652;48.406;10.820;2023-04-21T12:40:33;11.93;;;9.60;;
11191;SDS011;5652;48.406;10.820;2023-04-21T12:43:01;10.88;;;8.57;;
11191;SDS011;5652;48.406;10.820;2023-04-21T12:45:29;11.18;;;8.90;;
11191;SDS011;5652;48.406;10.820;2023-04-21T12:47:57;9.90;;;8.65;;
11191;SDS011;5652;48.406;10.820;2023-04-21T12:50:24;10.45;;;8.30;;
11191;SDS011;5652;48.406;10.820;2023-04-21T12:52:51;12.00;;;8.85;;
11191;SDS011;5652;48.406;10.820;2023-04-21T12:55:19;10.65;;;8.73;;
11191;SDS011;5652;48.406;10.820;2023-04-21T12:57:46;12.07;;;8.40;;
11191;SDS011;5652;48.406;10.820;2023-04-21T13:00:15;9.73;;;8.10;;
11191;SDS011;5652;48.406;10.820;2023-04-21T13:02:43;11.55;;;8.77;;
11191;SDS011;5652;48.406;10.820;2023-04-21T13:05:10;10.40;;;8.00;;
11191;SDS011;5652;48.406;10.820;2023-04-21T13:07:38;9.85;;;8.00;;
11191;SDS011;5652;48.406;10.820;2023-04-21T13:10:06;9.00;;;7.53;;
11191;SDS011;5652;48.406;10.820;2023-04-21T13:12:34;10.73;;;8.13;;
11191;SDS011;5652;48.406;10.820;2023-04-21T13:15:01;8.95;;;7.63;;
11191;SDS011;5652;48.406;10.820;2023-04-21T13:17:28;9.45;;;6.68;;
11191;SDS011;5652;48.406;10.820;2023-04-21T13:19:58;5.55;;;4.95;;
11191;SDS011;5652;48.406;10.820;2023-04-21T13:22:25;4.85;;;4.07;;
11191;SDS011;5652;48.406;10.820;2023-04-21T13:24:52;6.68;;;4.10;;
11191;SDS011;5652;48.406;10.820;2023-04-21T13:27:19;4.43;;;3.83;;
11191;SDS011;5652;48.406;10.820;2023-04-21T13:29:46;6.53;;;4.95;;
11191;SDS011;5652;48.406;10.820;2023-04-21T13:32:13;6.50;;;5.30;;
11191;SDS011;5652;48.406;10.820;2023-04-21T13:34:40;6.38;;;5.07;;
11191;SDS011;5652;48.406;10.820;2023-04-21T13:37:09;5.40;;;4.68;;
11191;SDS011;5652;48.406;10.820;2023-04-21T13:39:40;5.70;;;4.88;;
11191;SDS011;5652;48.406;10.820;2023-04-21T13:42:07;6.20;;;4.90;;
11191;SDS011;5652;48.406;10.820;2023-04-21T13:44:34;7.73;;;4.90;;
11191;SDS011;5652;48.406;10.820;2023-04-21T13:47:01;5.85;;;4.55;;
11191;SDS011;5652;48.406;10.820;2023-04-21T13:49:29;5.97;;;4.20;;
11191;SDS011;5652;48.406;10.820;2023-04-21T13:51:57;5.57;;;4.50;;
11191;SDS011;5652;48.406;10.820;2023-04-21T13:54:25;4.90;;;4.10;;
11191;SDS011;5652;48.406;10.820;2023-04-21T13:56:53;5.82;;;4.75;;
11191;SDS011;5652;48.406;10.820;2023-04-21T13:59:21;5.57;;;4.22;;
11191;SDS011;5652;48.406;10.820;2023-04-21T14:01:50;5.18;;;4.38;;
11191;SDS011;5652;48.406;10.820;2023-04-21T14:04:17;5.53;;;4.20;;
11191;SDS011;5652;48.406;10.820;2023-04-21T14:06:45;4.50;;;3.90;;
11191;SDS011;5652;48.406;10.820;2023-04-21T14:09:12;6.05;;;4.65;;
11191;SDS011;5652;48.406;10.820;2023-04-21T14:11:40;6.80;;;4.07;;
11191;SDS011;5652;48.406;10.820;2023-04-21T14:14:07;6.25;;;4.78;;
11191;SDS011;5652;48.406;10.820;2023-04-21T14:16:35;4.78;;;3.95;;
11191;SDS011;5652;48.406;10.820;2023-04-21T14:19:03;4.57;;;3.70;;
11191;SDS011;5652;48.406;10.820;2023-04-21T14:21:30;4.90;;;4.00;;
11191;SDS011;5652;48.406;10.820;2023-04-21T14:23:57;7.07;;;4.50;;
11191;SDS011;5652;48.406;10.820;2023-04-21T14:26:24;5.63;;;4.30;;
11191;SDS011;5652;48.406;10.820;2023-04-21T14:28:54;5.60;;;4.47;;
11191;SDS011;5652;48.406;10.820;2023-04-21T14:31:23;4.78;;;4.00;;
11191;SDS011;5652;48.406;10.820;2023-04-21T14:33:50;6.93;;;4.47;;